createdAt,value
2022-10-21T00:00:55.290Z,99991.50
2022-10-21T00:03:37.608Z,99994.28
2022-10-21T00:06:06.650Z,99984.06
2022-10-21T00:08:34.206Z,99986.88
2022-10-21T00:11:05.727Z,99983.56
2022-10-21T00:13:35.142Z,99973.97
2022-10-21T00:16:06.002Z,99972.47
2022-10-21T00:18:36.433Z,99963.09
2022-10-21T00:21:16.899Z,99953.16
2022-10-21T00:23:44.293Z,99958.78
2022-10-21T00:26:14.113Z,99950.38
2022-10-21T00:28:42.267Z,99951.03
2022-10-21T00:31:13.534Z,99943.25
2022-10-21T00:33:41.601Z,99938.13
2022-10-21T00:36:15.613Z,99928.38
2022-10-21T00:38:46.487Z,99919.28
2022-10-21T00:41:17.532Z,99925.72
2022-10-21T00:44:04.526Z,99920.13
2022-10-21T00:46:56.708Z,99920.13
2022-10-21T00:49:39.661Z,99918.50
2022-10-21T00:52:15.502Z,99920.44
2022-10-21T00:54:44.536Z,99926.09
2022-10-21T00:57:12.071Z,99927.72
2022-10-21T00:59:50.379Z,99919.13
2022-10-21T01:02:18.391Z,99905.59
2022-10-21T01:04:46.505Z,99899.00
2022-10-21T01:07:13.911Z,99903.63
2022-10-21T01:09:41.171Z,99890.88
2022-10-21T01:12:23.130Z,99894.69
2022-10-21T01:15:37.903Z,99895.69
2022-10-21T01:18:23.522Z,99896.34
2022-10-21T01:21:17.724Z,99900.97
2022-10-21T01:24:15.376Z,99905.59
2022-10-21T01:27:10.873Z,99919.13
2022-10-21T01:30:21.781Z,99920.78
2022-10-21T01:35:56.764Z,99912.53
2022-10-21T01:38:39.552Z,99910.84
2022-10-21T01:41:18.892Z,99912.84
2022-10-21T01:44:04.488Z,99905.25
2022-10-21T01:46:39.611Z,99897.31
2022-10-21T01:49:23.626Z,99892.38
2022-10-21T01:51:53.349Z,99892.69
2022-10-21T01:54:28.794Z,99891.03
2022-10-21T01:56:59.738Z,99887.09
2022-10-21T01:59:31.876Z,99892.50
2022-10-21T02:02:04.654Z,99897.00
2022-10-21T02:04:36.144Z,99899.28
2022-10-21T02:07:03.701Z,99900.91
2022-10-21T02:12:03.148Z,99889.03
2022-10-21T02:14:46.169Z,99891.03
2022-10-21T02:17:19.382Z,99886.91
2022-10-21T02:19:46.803Z,99879.47
2022-10-21T02:22:23.105Z,99876.13
2022-10-21T02:25:08.353Z,99880.13
2022-10-21T02:27:35.853Z,99892.81
2022-10-21T02:30:06.954Z,99882.75
2022-10-21T02:33:03.606Z,99882.06
2022-10-21T02:36:32.284Z,99880.75
2022-10-21T02:39:10.078Z,99872.97
2022-10-21T02:41:41.882Z,99872.50
2022-10-21T02:44:09.781Z,99860.59
2022-10-21T02:46:41.427Z,99867.84
2022-10-21T02:49:09.546Z,99854.00
2022-10-21T02:51:36.996Z,99857.13
2022-10-21T02:54:04.175Z,99856.28
2022-10-21T02:56:31.476Z,99853.31
2022-10-21T02:58:58.610Z,99855.59
2022-10-21T03:01:25.741Z,99856.13
2022-10-21T03:03:53.160Z,99843.38
2022-10-21T03:06:20.521Z,99857.56
2022-10-21T03:08:47.877Z,99867.13
2022-10-21T03:11:14.968Z,99861.50
2022-10-21T03:13:42.057Z,99860.81
2022-10-21T03:16:09.397Z,99859.16
2022-10-21T03:18:36.728Z,99852.22
2022-10-21T03:21:03.993Z,99843.50
2022-10-21T03:23:31.266Z,99835.06
2022-10-21T03:25:58.875Z,99842.81
2022-10-21T03:28:26.165Z,99850.91
2022-10-21T03:30:54.573Z,99856.47
2022-10-21T03:33:21.997Z,99840.16
2022-10-21T03:35:48.914Z,99838.66
2022-10-21T03:38:16.154Z,99823.50
2022-10-21T03:40:43.172Z,99837.66
2022-10-21T03:43:10.369Z,99838.66
2022-10-21T03:45:38.357Z,99839.94
2022-10-21T03:48:05.825Z,99834.19
2022-10-21T03:50:32.986Z,99825.75
2022-10-21T03:53:02.397Z,99830.06
2022-10-21T03:55:33.793Z,99829.03
2022-10-21T03:58:00.917Z,99813.53
2022-10-21T04:00:30.884Z,99812.69
2022-10-21T04:02:59.124Z,99813.19
2022-10-21T04:05:26.310Z,99806.09
2022-10-21T04:07:53.758Z,99802.28
2022-10-21T04:10:21.202Z,99800.63
2022-10-21T04:12:48.336Z,99791.69
2022-10-21T04:15:15.366Z,99786.59
2022-10-21T04:17:46.905Z,99781.50
2022-10-21T04:20:14.242Z,99773.88
2022-10-21T04:22:41.592Z,99778.50
2022-10-21T04:25:09.388Z,99783.41
2022-10-21T04:27:36.705Z,99782.88
2022-10-21T04:30:05.186Z,99776.78
2022-10-21T04:32:32.405Z,99772.66
2022-10-21T04:34:59.513Z,99778.75
2022-10-21T04:37:26.819Z,99771.81
2022-10-21T04:39:54.143Z,99767.38
2022-10-21T04:42:21.304Z,99772.16
2022-10-21T04:44:48.430Z,99784.50
2022-10-21T04:47:15.869Z,99785.78
2022-10-21T04:49:42.875Z,99774.13
2022-10-21T04:52:10.256Z,99769.16
2022-10-21T04:54:37.286Z,99778.03
2022-10-21T04:57:04.938Z,99771.78
2022-10-21T04:59:32.011Z,99756.97
2022-10-21T05:01:59.344Z,99757.44
2022-10-21T05:04:26.399Z,99755.31
2022-10-21T05:06:53.529Z,99767.13
2022-10-21T05:09:20.696Z,99759.22
2022-10-21T05:11:47.878Z,99758.41
2022-10-21T05:14:17.609Z,99764.31
2022-10-21T05:16:47.341Z,99763.16
2022-10-21T05:19:15.166Z,99775.97
2022-10-21T05:21:42.394Z,99772.69
2022-10-21T05:24:10.349Z,99772.38
2022-10-21T05:26:37.517Z,99771.53
2022-10-21T05:29:05.258Z,99777.94
2022-10-21T05:31:32.718Z,99785.47
2022-10-21T05:33:59.695Z,99782.97
2022-10-21T05:36:26.923Z,99772.97
2022-10-21T05:38:54.254Z,99777.28
2022-10-21T05:41:21.670Z,99791.25
2022-10-21T05:43:48.641Z,99780.41
2022-10-21T05:46:15.922Z,99784.53
2022-10-21T05:48:43.084Z,99778.81
2022-10-21T05:51:10.474Z,99777.84
2022-10-21T05:53:39.731Z,99777.53
2022-10-21T05:56:08.880Z,99775.25
2022-10-21T05:58:36.079Z,99781.84
2022-10-21T06:01:03.912Z,99780.41
2022-10-21T06:03:34.782Z,99779.41
2022-10-21T06:06:07.366Z,99772.19
2022-10-21T06:08:36.892Z,99767.91
2022-10-21T06:11:18.159Z,99760.50
2022-10-21T06:13:46.182Z,99747.53
2022-10-21T06:16:15.033Z,99762.69
2022-10-21T06:18:42.856Z,99784.81
2022-10-21T06:21:10.709Z,99805.88
2022-10-21T06:23:38.250Z,99804.25
2022-10-21T06:26:10.443Z,99811.50
2022-10-21T06:28:41.041Z,99815.63
2022-10-21T06:31:14.255Z,99816.13
2022-10-21T06:33:41.816Z,99801.13
2022-10-21T06:36:10.665Z,99810.53
2022-10-21T06:38:38.300Z,99806.59
2022-10-21T06:41:13.562Z,99799.34
2022-10-21T06:43:42.789Z,99820.97
2022-10-21T06:46:14.857Z,99829.03
2022-10-21T06:48:43.783Z,99814.84
2022-10-21T06:51:19.397Z,99805.66
2022-10-21T06:53:51.090Z,99809.63
2022-10-21T06:56:20.291Z,99810.16
2022-10-21T06:58:49.228Z,99800.75
2022-10-21T07:01:41.076Z,99803.91
2022-10-21T07:04:15.476Z,99808.69
2022-10-21T07:06:43.084Z,99815.28
2022-10-21T07:09:11.057Z,99814.16
2022-10-21T07:11:38.389Z,99807.72
2022-10-21T07:14:05.936Z,99800.47
2022-10-21T07:16:36.878Z,99814.34
2022-10-21T07:19:06.774Z,99798.53
2022-10-21T07:21:34.058Z,99803.31
2022-10-21T07:24:02.360Z,99802.84
2022-10-21T07:26:33.113Z,99810.13
2022-10-21T07:29:01.384Z,99812.09
2022-10-21T07:31:35.775Z,99806.53
2022-10-21T07:36:42.234Z,99788.53
2022-10-21T07:39:14.425Z,99784.56
2022-10-21T07:41:52.522Z,99785.22
2022-10-21T07:44:22.752Z,99772.53
2022-10-21T07:46:51.662Z,99758.63
2022-10-21T07:49:21.200Z,99755.78
2022-10-21T07:51:50.420Z,99755.09
2022-10-21T07:54:19.069Z,99745.63
2022-10-21T07:56:50.557Z,99748.69
2022-10-21T07:59:19.695Z,99743.63
2022-10-21T08:04:23.081Z,99745.53
2022-10-21T08:06:50.648Z,99723.03
2022-10-21T08:09:17.826Z,99720.22
2022-10-21T08:11:45.521Z,99716.34
2022-10-21T08:14:13.412Z,99705.06
2022-10-21T08:16:41.910Z,99707.03
2022-10-21T08:19:17.330Z,99706.16
2022-10-21T08:21:44.470Z,99706.53
2022-10-21T08:24:11.513Z,99697.41
2022-10-21T08:26:38.919Z,99698.56
2022-10-21T08:29:05.919Z,99683.91
2022-10-21T08:31:33.446Z,99697.78
2022-10-21T08:34:01.108Z,99699.50
2022-10-21T08:36:28.501Z,99689.56
2022-10-21T08:38:55.981Z,99686.28
2022-10-21T08:41:29.048Z,99678.69
2022-10-21T08:44:44.295Z,99669.50
2022-10-21T08:47:37.325Z,99672.25
2022-10-21T08:50:13.357Z,99672.13
2022-10-21T08:52:56.106Z,99669.97
2022-10-21T08:55:35.325Z,99662.50
2022-10-21T08:58:05.227Z,99665.47
2022-10-21T09:00:47.193Z,99656.16
2022-10-21T09:03:35.862Z,99653.75
2022-10-21T09:06:31.084Z,99651.41
2022-10-21T09:09:16.902Z,99640.78
2022-10-21T09:11:56.149Z,99629.78
2022-10-21T09:14:44.654Z,99634.78
2022-10-21T09:17:49.586Z,99637.66
2022-10-21T09:20:38.418Z,99629.09
2022-10-21T09:23:38.446Z,99616.66
2022-10-21T09:26:38.165Z,99608.94
2022-10-21T09:29:40.983Z,99608.75
2022-10-21T09:32:15.274Z,99593.56
2022-10-21T09:35:06.589Z,99591.94
2022-10-21T09:37:48.478Z,99592.13
2022-10-21T09:40:28.487Z,99592.72
2022-10-21T09:42:59.489Z,99597.25
2022-10-21T09:45:39.877Z,99591.69
2022-10-21T09:48:17.812Z,99587.38
2022-10-21T09:50:50.966Z,99576.25
2022-10-21T09:53:26.587Z,99580.75
2022-10-21T09:56:11.593Z,99576.63
2022-10-21T09:58:38.818Z,99563.66
2022-10-21T10:01:06.683Z,99558.06
2022-10-21T10:03:42.235Z,99554.91
2022-10-21T10:06:09.865Z,99546.03
2022-10-21T10:08:47.294Z,99529.13
2022-10-21T10:11:21.568Z,99530.69
2022-10-21T10:13:52.851Z,99514.13
2022-10-21T10:16:32.542Z,99511.16
2022-10-21T10:19:21.173Z,99510.91
2022-10-21T10:22:14.039Z,99490.38
2022-10-21T10:24:43.705Z,99490.25
2022-10-21T10:27:19.095Z,99486.91
2022-10-21T10:29:56.037Z,99498.13
2022-10-21T10:32:31.471Z,99488.84
2022-10-21T10:35:03.846Z,99485.06
2022-10-21T10:37:37.835Z,99479.06
2022-10-21T10:40:09.326Z,99472.59
2022-10-21T10:42:44.218Z,99465.97
2022-10-21T10:45:20.404Z,99461.22
2022-10-21T10:48:03.202Z,99468.41
2022-10-21T10:50:50.203Z,99459.78
2022-10-21T10:53:23.401Z,99466.56
2022-10-21T10:56:05.473Z,99463.44
2022-10-21T10:58:40.152Z,99450.84
2022-10-21T11:01:19.949Z,99446.56
2022-10-21T11:04:03.531Z,99436.06
2022-10-21T11:06:44.336Z,99437.13
2022-10-21T11:09:12.705Z,99415.28
2022-10-21T11:11:44.842Z,99423.53
2022-10-21T11:14:21.757Z,99420.25
2022-10-21T11:17:06.558Z,99412.47
2022-10-21T11:19:57.737Z,99406.50
2022-10-21T11:22:58.014Z,99408.16
2022-10-21T11:25:59.422Z,99398.63
2022-10-21T11:28:45.018Z,99390.59
2022-10-21T11:31:43.946Z,99383.19
2022-10-21T11:34:49.386Z,99369.72
2022-10-21T11:37:41.181Z,99365.91
2022-10-21T11:40:32.572Z,99367.66
2022-10-21T11:43:29.053Z,99371.06
2022-10-21T11:46:25.057Z,99363.75
2022-10-21T11:49:33.022Z,99367.25
2022-10-21T11:52:40.846Z,99363.81
2022-10-21T11:55:46.598Z,99361.38
2022-10-21T11:58:59.646Z,99357.78
2022-10-21T12:01:38.013Z,99356.00
2022-10-21T12:04:33.259Z,99340.66
2022-10-21T12:07:29.013Z,99334.34
2022-10-21T12:10:36.742Z,99327.25
2022-10-21T12:13:23.940Z,99324.69
2022-10-21T12:16:04.317Z,99327.69
2022-10-21T12:18:43.046Z,99316.19
2022-10-21T12:21:27.339Z,99322.81
2022-10-21T12:24:11.650Z,99315.34
2022-10-21T12:27:07.022Z,99312.78
2022-10-21T12:30:00.579Z,99301.59
2022-10-21T12:33:11.364Z,99307.63
2022-10-21T12:35:55.202Z,99300.16
2022-10-21T12:38:49.625Z,99287.31
2022-10-21T12:41:38.441Z,99302.94
2022-10-21T12:44:22.647Z,99292.22
2022-10-21T12:47:00.884Z,99286.84
2022-10-21T12:49:35.869Z,99286.59
2022-10-21T12:52:20.482Z,99286.84
2022-10-21T12:55:07.500Z,99278.25
2022-10-21T12:57:38.534Z,99270.75
2022-10-21T13:00:27.042Z,99274.59
2022-10-21T13:03:21.427Z,99283.81
2022-10-21T13:05:49.954Z,99278.28
2022-10-21T13:08:29.417Z,99278.72
2022-10-21T13:11:05.920Z,99281.56
2022-10-21T13:13:37.594Z,99284.34
2022-10-21T13:16:20.262Z,99286.00
2022-10-21T13:19:33.965Z,99289.94
2022-10-21T13:22:14.055Z,99278.25
2022-10-21T13:24:42.649Z,99284.19
2022-10-21T13:30:01.299Z,99267.59
2022-10-21T13:32:39.694Z,99267.19
2022-10-21T13:35:26.198Z,99253.03
2022-10-21T13:38:03.533Z,99254.31
2022-10-21T13:40:47.672Z,99260.03
2022-10-21T13:43:24.480Z,99254.75
2022-10-21T13:46:08.214Z,99253.19
2022-10-21T13:48:47.971Z,99258.09
2022-10-21T13:51:22.159Z,99248.16
2022-10-21T13:53:54.950Z,99250.13
2022-10-21T13:56:36.431Z,99255.19
2022-10-21T13:59:05.819Z,99247.34
2022-10-21T14:01:49.041Z,99245.97
2022-10-21T14:04:25.575Z,99259.16
2022-10-21T14:07:07.984Z,99255.88
2022-10-21T14:09:54.619Z,99249.13
2022-10-21T14:12:32.482Z,99266.53
2022-10-21T14:15:14.216Z,99261.97
2022-10-21T14:17:50.958Z,99259.06
2022-10-21T14:20:28.091Z,99257.44
2022-10-21T14:22:55.985Z,99261.16
2022-10-21T14:25:23.397Z,99259.56
2022-10-21T14:27:50.813Z,99266.44
2022-10-21T14:30:27.505Z,99261.03
2022-10-21T14:32:59.223Z,99259.00
2022-10-21T14:35:29.741Z,99265.91
2022-10-21T14:38:02.298Z,99262.41
2022-10-21T14:41:05.191Z,99257.06
2022-10-21T14:43:39.959Z,99262.66
2022-10-21T14:46:10.851Z,99259.16
2022-10-21T14:48:50.911Z,99261.28
2022-10-21T14:51:22.593Z,99262.31
2022-10-21T14:54:05.265Z,99262.56
2022-10-21T14:56:42.747Z,99258.50
2022-10-21T14:59:34.077Z,99265.41
2022-10-21T15:02:03.501Z,99268.56
2022-10-21T15:04:53.757Z,99272.53
2022-10-21T15:07:36.014Z,99273.28
2022-10-21T15:10:04.137Z,99282.81
2022-10-21T15:12:46.810Z,99275.75
2022-10-21T15:15:49.711Z,99275.66
2022-10-21T15:18:39.893Z,99271.81
2022-10-21T15:21:48.447Z,99274.38
2022-10-21T15:24:26.017Z,99285.81
2022-10-21T15:26:54.685Z,99287.09
2022-10-21T15:29:33.042Z,99295.66
2022-10-21T15:32:01.177Z,99298.78
2022-10-21T15:34:28.752Z,99296.59
2022-10-21T15:36:55.762Z,99298.13
2022-10-21T15:39:23.942Z,99297.75
2022-10-21T15:41:54.974Z,99300.13
2022-10-21T15:44:30.348Z,99306.97
2022-10-21T15:47:01.247Z,99299.66
2022-10-21T15:49:43.249Z,99299.28
2022-10-21T15:52:10.518Z,99301.41
2022-10-21T15:54:37.990Z,99296.53
2022-10-21T15:57:22.531Z,99305.03
2022-10-21T15:59:49.978Z,99311.88
2022-10-21T16:02:18.014Z,99315.06
2022-10-21T16:04:45.719Z,99321.44
2022-10-21T16:07:25.905Z,99310.59
2022-10-21T16:09:53.086Z,99318.06
2022-10-21T16:12:21.947Z,99312.13
2022-10-21T16:14:49.190Z,99313.63
2022-10-21T16:17:16.777Z,99321.09
2022-10-21T16:19:44.130Z,99321.53
2022-10-21T16:22:22.400Z,99317.47
2022-10-21T16:24:49.947Z,99328.41
2022-10-21T16:27:31.265Z,99326.00
2022-10-21T16:30:22.755Z,99327.25
2022-10-21T16:32:51.227Z,99337.16
2022-10-21T16:35:20.729Z,99325.25
2022-10-21T16:37:48.946Z,99333.50
2022-10-21T16:40:31.734Z,99330.25
2022-10-21T16:42:59.269Z,99336.88
2022-10-21T16:45:32.429Z,99334.44
2022-10-21T16:48:03.390Z,99340.25
2022-10-21T16:50:37.341Z,99335.91
2022-10-21T16:53:05.809Z,99338.00
2022-10-21T16:55:33.521Z,99339.53
2022-10-21T16:58:00.481Z,99348.00
2022-10-21T17:00:27.678Z,99346.63
2022-10-21T17:02:56.322Z,99346.25
2022-10-21T17:05:23.529Z,99348.78
2022-10-21T17:07:50.709Z,99340.41
2022-10-21T17:10:18.171Z,99353.78
2022-10-21T17:12:45.255Z,99348.06
2022-10-21T17:15:16.257Z,99343.41
2022-10-21T17:17:43.345Z,99354.34
2022-10-21T17:20:11.095Z,99360.97
2022-10-21T17:22:38.080Z,99352.34
2022-10-21T17:25:06.353Z,99364.31
2022-10-21T17:27:33.351Z,99357.34
2022-10-21T17:30:00.650Z,99357.78
2022-10-21T17:32:32.607Z,99352.66
2022-10-21T17:34:59.849Z,99362.78
2022-10-21T17:37:27.053Z,99354.19
2022-10-21T17:39:54.414Z,99363.22
2022-10-21T17:42:21.529Z,99353.81
2022-10-21T17:44:49.540Z,99353.44
2022-10-21T17:47:16.827Z,99357.16
2022-10-21T17:49:44.112Z,99353.06
2022-10-21T17:52:11.401Z,99354.34
2022-10-21T17:54:38.950Z,99355.59
2022-10-21T17:57:05.954Z,99350.25
2022-10-21T17:59:33.313Z,99356.06
2022-10-21T18:02:01.230Z,99345.81
2022-10-21T18:04:28.599Z,99350.56
2022-10-21T18:06:55.795Z,99344.63
2022-10-21T18:09:23.321Z,99353.69
2022-10-21T18:11:50.402Z,99350.66
2022-10-21T18:14:17.814Z,99348.19
2022-10-21T18:16:45.111Z,99346.00
2022-10-21T18:19:12.764Z,99350.50
2022-10-21T18:21:40.164Z,99337.38
2022-10-21T18:24:12.224Z,99328.75
2022-10-21T18:26:40.005Z,99326.56
2022-10-21T18:29:07.414Z,99322.22
2022-10-21T18:31:37.127Z,99321.66
2022-10-21T18:34:06.400Z,99330.94
2022-10-21T18:36:35.579Z,99323.13
2022-10-21T18:39:05.813Z,99322.69
2022-10-21T18:41:33.908Z,99314.06
2022-10-21T18:44:08.486Z,99321.50
2022-10-21T18:46:42.282Z,99325.19
2022-10-21T18:49:18.669Z,99328.34
2022-10-21T18:51:46.724Z,99324.84
2022-10-21T18:54:15.804Z,99330.19
2022-10-21T18:56:45.057Z,99326.13
2022-10-21T18:59:16.047Z,99308.44
2022-10-21T19:01:44.435Z,99317.94
2022-10-21T19:06:46.080Z,99317.56
2022-10-21T19:09:20.797Z,99316.75
2022-10-21T19:11:49.583Z,99316.75
2022-10-21T19:14:19.075Z,99318.84
2022-10-21T19:16:49.780Z,99315.56
2022-10-21T19:19:20.045Z,99317.66
2022-10-21T19:21:47.638Z,99318.69
2022-10-21T19:24:15.383Z,99317.06
2022-10-21T19:26:46.375Z,99305.31
2022-10-21T19:29:18.922Z,99310.66
2022-10-21T19:34:26.446Z,99309.50
2022-10-21T19:36:54.388Z,99307.41
2022-10-21T19:39:23.831Z,99307.41
2022-10-21T19:41:51.600Z,99302.06
2022-10-21T19:44:25.020Z,99282.78
2022-10-21T19:46:52.774Z,99279.53
2022-10-21T19:49:20.099Z,99277.88
2022-10-21T19:51:47.302Z,99274.63
2022-10-21T19:54:14.642Z,99283.66
2022-10-21T19:56:42.070Z,99266.03
2022-10-21T19:59:11.359Z,99262.75
2022-10-21T20:01:38.935Z,99259.47
2022-10-21T20:04:06.510Z,99255.78
2022-10-21T20:06:37.035Z,99255.19
2022-10-21T20:09:09.742Z,99257.47
2022-10-21T20:11:38.209Z,99240.63
2022-10-21T20:14:06.750Z,99224.81
2022-10-21T20:16:42.021Z,99216.22
2022-10-21T20:19:12.731Z,99212.72
2022-10-21T20:21:41.178Z,99205.78
2022-10-21T20:24:10.702Z,99206.38
2022-10-21T20:29:11.153Z,99213.78
2022-10-21T20:31:39.189Z,99212.72
2022-10-21T20:34:06.689Z,99218.06
2022-10-21T20:36:34.553Z,99213.16
2022-10-21T20:39:03.741Z,99202.50
2022-10-21T20:41:37.141Z,99207.03
2022-10-21T20:44:10.327Z,99212.59
2022-10-21T20:46:37.906Z,99216.31
2022-10-21T20:49:07.288Z,99224.53
2022-10-21T20:51:37.725Z,99221.50
2022-10-21T20:54:11.544Z,99218.22
2022-10-21T20:56:41.152Z,99205.47
2022-10-21T20:59:12.937Z,99209.19
2022-10-21T21:01:43.705Z,99209.19
2022-10-21T21:04:17.094Z,99209.19
2022-10-21T21:06:47.663Z,99223.34
2022-10-21T21:12:06.976Z,99236.09
2022-10-21T21:14:34.350Z,99240.03
2022-10-21T21:17:02.349Z,99240.03
2022-10-21T21:19:29.608Z,99241.06
2022-10-21T21:21:57.489Z,99245.59
2022-10-21T21:24:24.749Z,99251.16
2022-10-21T21:26:52.713Z,99251.16
2022-10-21T21:29:20.149Z,99251.16
2022-10-21T21:31:47.111Z,99243.38
2022-10-21T21:34:14.282Z,99240.47
2022-10-21T21:36:41.924Z,99236.41
2022-10-21T21:39:11.043Z,99232.31
2022-10-21T21:41:38.184Z,99239.31
2022-10-21T21:44:06.316Z,99229.06
2022-10-21T21:46:33.630Z,99234.41
2022-10-21T21:49:05.825Z,99225.81
2022-10-21T21:51:36.701Z,99230.53
2022-10-21T21:54:06.694Z,99220.31
2022-10-21T21:56:34.318Z,99218.91
2022-10-21T21:59:02.716Z,99216.44
2022-10-21T22:01:30.286Z,99220.16
2022-10-21T22:03:58.213Z,99217.91
2022-10-21T22:06:34.297Z,99214.66
2022-10-21T22:09:03.409Z,99219.41
2022-10-21T22:11:32.501Z,99226.00
2022-10-21T22:14:00.382Z,99232.59
2022-10-21T22:16:30.677Z,99234.63
2022-10-21T22:19:00.486Z,99233.03
2022-10-21T22:21:29.513Z,99237.19
2022-10-21T22:23:56.791Z,99243.53
2022-10-21T22:26:26.446Z,99247.47
2022-10-21T22:28:54.497Z,99248.72
2022-10-21T22:31:27.410Z,99240.13
2022-10-21T22:34:04.232Z,99241.97
2022-10-21T22:36:33.794Z,99244.88
2022-10-21T22:39:01.038Z,99261.06
2022-10-21T22:41:29.289Z,99265.56
2022-10-21T22:43:56.538Z,99255.38
2022-10-21T22:46:39.163Z,99241.41
2022-10-21T22:49:07.054Z,99242.69
2022-10-21T22:51:34.448Z,99241.88
2022-10-21T22:54:05.611Z,99242.88
2022-10-21T22:56:38.179Z,99243.31
2022-10-21T22:59:05.342Z,99245.19
2022-10-21T23:01:32.547Z,99240.28
2022-10-21T23:04:03.574Z,99241.53
2022-10-21T23:06:33.574Z,99234.56
2022-10-21T23:09:03.992Z,99233.16
2022-10-21T23:11:32.178Z,99238.72
2022-10-21T23:14:03.730Z,99236.25
2022-10-21T23:16:37.500Z,99245.06
2022-10-21T23:19:07.921Z,99242.84
2022-10-21T23:21:36.725Z,99242.03
2022-10-21T23:24:05.867Z,99236.91
2022-10-21T23:26:32.866Z,99241.63
2022-10-21T23:29:00.042Z,99240.00
2022-10-21T23:31:28.265Z,99228.72
2022-10-21T23:33:55.521Z,99227.31
2022-10-21T23:36:22.819Z,99217.47
2022-10-21T23:38:54.932Z,99230.19
2022-10-21T23:41:22.751Z,99233.88
2022-10-21T23:43:49.926Z,99235.13
2022-10-21T23:46:17.125Z,99232.69
2022-10-21T23:48:44.447Z,99240.09
2022-10-21T23:51:11.419Z,99235.19
2022-10-21T23:53:38.896Z,99240.53
2022-10-21T23:56:06.573Z,99244.25
2022-10-21T23:58:33.935Z,99245.50
